createdAt,value
2022-12-23T00:00:09.489Z,97.79
2022-12-23T00:01:09.470Z,97.79
2022-12-23T00:02:09.603Z,97.69
2022-12-23T00:03:09.626Z,97.69
2022-12-23T00:04:09.552Z,97.69
2022-12-23T00:05:09.425Z,97.58
2022-12-23T00:06:09.398Z,97.48
2022-12-23T00:07:09.409Z,97.48
2022-12-23T00:08:09.410Z,97.38
2022-12-23T00:09:09.399Z,97.38
2022-12-23T00:10:09.344Z,97.48
2022-12-23T00:11:09.374Z,97.38
2022-12-23T00:12:09.345Z,97.38
2022-12-23T00:13:10.063Z,97.38
2022-12-23T00:14:12.166Z,97.38
2022-12-23T00:15:10.380Z,97.28
2022-12-23T00:16:09.370Z,97.28
2022-12-23T00:17:21.500Z,97.28
2022-12-23T00:18:10.341Z,97.28
2022-12-23T00:19:09.242Z,97.28
2022-12-23T00:20:09.280Z,97.28
2022-12-23T00:21:09.910Z,97.17
2022-12-23T00:22:09.251Z,97.17
2022-12-23T00:23:09.261Z,97.17
2022-12-23T00:24:09.233Z,97.17
2022-12-23T00:25:09.206Z,97.07
2022-12-23T00:26:09.273Z,97.07
2022-12-23T00:27:09.190Z,96.97
2022-12-23T00:28:09.170Z,96.87
2022-12-23T00:29:09.171Z,96.87
2022-12-23T00:30:09.155Z,96.87
2022-12-23T00:31:09.111Z,96.82
2022-12-23T00:32:09.288Z,96.72
2022-12-23T00:33:09.104Z,96.72
2022-12-23T00:34:09.215Z,96.62
2022-12-23T00:35:09.176Z,96.51
2022-12-23T00:36:09.212Z,96.51
2022-12-23T00:37:09.043Z,96.51
2022-12-23T00:38:09.096Z,96.51
2022-12-23T00:39:09.008Z,96.51
2022-12-23T00:40:09.023Z,96.51
2022-12-23T00:41:09.012Z,96.62
2022-12-23T00:42:09.026Z,96.62
2022-12-23T00:43:08.963Z,96.62
2022-12-23T00:44:08.993Z,96.62
2022-12-23T00:45:08.951Z,96.62
2022-12-23T00:46:09.037Z,96.51
2022-12-23T00:47:08.945Z,96.51
2022-12-23T00:48:08.942Z,96.56
2022-12-23T00:49:08.936Z,96.45
2022-12-23T00:50:08.988Z,96.41
2022-12-23T00:51:08.883Z,96.56
2022-12-23T00:52:08.908Z,96.56
2022-12-23T00:53:08.863Z,96.66
2022-12-23T00:54:08.860Z,96.56
2022-12-23T00:55:08.928Z,96.56
2022-12-23T00:56:08.876Z,96.56
2022-12-23T00:57:08.877Z,96.56
2022-12-23T00:58:08.819Z,96.66
2022-12-23T00:59:08.798Z,96.66
2022-12-23T01:00:08.814Z,96.56
2022-12-23T01:01:08.823Z,96.56
2022-12-23T01:02:08.953Z,96.56
2022-12-23T01:03:08.919Z,96.56
2022-12-23T01:04:08.745Z,96.66
2022-12-23T01:05:08.720Z,96.66
2022-12-23T01:06:08.746Z,96.66
2022-12-23T01:07:08.795Z,96.66
2022-12-23T01:08:08.756Z,96.66
2022-12-23T01:09:08.727Z,96.77
2022-12-23T01:10:08.724Z,96.77
2022-12-23T01:11:08.655Z,96.87
2022-12-23T01:12:08.667Z,96.87
2022-12-23T01:13:08.646Z,96.97
2022-12-23T01:14:08.749Z,96.97
2022-12-23T01:15:08.602Z,96.97
2022-12-23T01:16:14.976Z,97.07
2022-12-23T01:17:09.718Z,97.07
2022-12-23T01:18:08.659Z,97.17
2022-12-23T01:19:09.517Z,97.17
2022-12-23T01:20:08.585Z,97.17
2022-12-23T01:21:08.542Z,97.07
2022-12-23T01:22:08.549Z,97.07
2022-12-23T01:23:08.526Z,97.07
2022-12-23T01:24:08.532Z,97.07
2022-12-23T01:25:08.515Z,97.07
2022-12-23T01:26:08.598Z,97.07
2022-12-23T01:27:08.489Z,97.07
2022-12-23T01:28:08.499Z,97.07
2022-12-23T01:29:08.448Z,97.07
2022-12-23T01:30:08.456Z,97.07
2022-12-23T01:31:08.437Z,97.07
2022-12-23T01:32:08.517Z,97.07
2022-12-23T01:33:08.392Z,97.07
2022-12-23T01:34:08.440Z,97.07
2022-12-23T01:35:08.436Z,97.07
2022-12-23T01:36:08.406Z,97.07
2022-12-23T01:37:08.481Z,97.22
2022-12-23T01:38:08.368Z,97.12
2022-12-23T01:39:08.375Z,97.22
2022-12-23T01:40:08.354Z,97.22
2022-12-23T01:41:08.320Z,97.12
2022-12-23T01:42:08.316Z,97.22
2022-12-23T01:43:08.287Z,97.22
2022-12-23T01:44:08.325Z,97.22
2022-12-23T01:45:08.301Z,97.22
2022-12-23T01:46:08.317Z,97.22
2022-12-23T01:47:08.265Z,97.22
2022-12-23T01:48:08.261Z,97.12
2022-12-23T01:49:08.249Z,97.12
2022-12-23T01:50:08.248Z,97.12
2022-12-23T01:51:08.201Z,97.22
2022-12-23T01:52:08.214Z,97.22
2022-12-23T01:53:08.728Z,97.22
2022-12-23T01:54:08.205Z,97.12
2022-12-23T01:55:08.157Z,97.12
2022-12-23T01:56:08.183Z,97.02
2022-12-23T01:57:08.138Z,97.02
2022-12-23T01:58:08.160Z,97.02
2022-12-23T01:59:08.109Z,97.02
2022-12-23T02:00:08.178Z,96.91
2022-12-23T02:01:08.188Z,96.91
2022-12-23T02:02:08.225Z,96.91
2022-12-23T02:03:08.259Z,96.91
2022-12-23T02:04:08.115Z,96.91
2022-12-23T02:05:08.060Z,96.91
2022-12-23T02:06:08.057Z,96.91
2022-12-23T02:07:08.033Z,96.91
2022-12-23T02:08:08.027Z,96.91
2022-12-23T02:09:08.025Z,96.91
2022-12-23T02:10:08.025Z,96.91
2022-12-23T02:11:07.983Z,96.91
2022-12-23T02:12:08.951Z,96.91
2022-12-23T02:13:07.964Z,96.91
2022-12-23T02:14:07.986Z,97.02
2022-12-23T02:15:07.931Z,97.02
2022-12-23T02:16:07.936Z,97.12
2022-12-23T02:17:07.974Z,97.12
2022-12-23T02:18:08.045Z,97.22
2022-12-23T02:19:07.942Z,97.12
2022-12-23T02:20:07.923Z,97.12
2022-12-23T02:21:07.879Z,97.12
2022-12-23T02:22:07.886Z,97.12
2022-12-23T02:23:07.859Z,96.97
2022-12-23T02:24:08.161Z,96.97
2022-12-23T02:25:07.886Z,96.97
2022-12-23T02:26:07.834Z,96.87
2022-12-23T02:27:07.784Z,96.87
2022-12-23T02:28:07.834Z,96.66
2022-12-23T02:29:07.785Z,96.66
2022-12-23T02:30:07.893Z,96.77
2022-12-23T02:31:07.819Z,96.66
2022-12-23T02:32:07.767Z,96.66
2022-12-23T02:33:07.732Z,96.66
2022-12-23T02:34:07.760Z,96.56
2022-12-23T02:35:07.886Z,96.56
2022-12-23T02:36:07.760Z,96.45
2022-12-23T02:37:07.754Z,96.35
2022-12-23T02:38:07.777Z,96.35
2022-12-23T02:39:07.758Z,96.35
2022-12-23T02:40:07.732Z,96.35
2022-12-23T02:41:07.638Z,96.35
2022-12-23T02:42:07.723Z,96.35
2022-12-23T02:43:07.665Z,96.25
2022-12-23T02:44:07.742Z,96.25
2022-12-23T02:45:07.918Z,96.25
2022-12-23T02:46:07.751Z,96.25
2022-12-23T02:47:07.605Z,96.25
2022-12-23T02:48:07.583Z,96.25
2022-12-23T02:49:07.686Z,96.25
2022-12-23T02:50:08.118Z,96.35
2022-12-23T02:51:07.574Z,96.35
2022-12-23T02:52:07.531Z,96.25
2022-12-23T02:53:08.223Z,96.15
2022-12-23T02:54:07.557Z,96.25
2022-12-23T02:55:07.474Z,96.25
2022-12-23T02:56:07.584Z,96.25
2022-12-23T02:57:07.466Z,96.25
2022-12-23T02:58:07.635Z,96.25
2022-12-23T02:59:07.429Z,96.25
2022-12-23T03:00:07.794Z,96.25
2022-12-23T03:01:07.477Z,96.25
2022-12-23T03:02:07.645Z,96.35
2022-12-23T03:03:07.647Z,96.35
2022-12-23T03:04:07.461Z,96.25
2022-12-23T03:05:07.405Z,96.35
2022-12-23T03:06:07.389Z,96.25
2022-12-23T03:07:08.554Z,96.25
2022-12-23T03:08:07.361Z,96.25
2022-12-23T03:09:07.424Z,96.25
2022-12-23T03:10:07.359Z,96.25
2022-12-23T03:11:07.314Z,96.25
2022-12-23T03:12:07.302Z,96.35
2022-12-23T03:13:07.266Z,96.35
2022-12-23T03:14:07.284Z,96.35
2022-12-23T03:15:07.247Z,96.35
2022-12-23T03:16:07.358Z,96.35
2022-12-23T03:17:07.222Z,96.25
2022-12-23T03:18:07.248Z,96.25
2022-12-23T03:19:07.213Z,96.25
2022-12-23T03:20:07.221Z,96.25
2022-12-23T03:21:07.327Z,96.25
2022-12-23T03:22:07.297Z,96.35
2022-12-23T03:23:07.145Z,96.50
2022-12-23T03:24:07.176Z,96.60
2022-12-23T03:25:07.199Z,96.60
2022-12-23T03:26:07.205Z,96.70
2022-12-23T03:27:07.102Z,96.70
2022-12-23T03:28:07.117Z,96.70
2022-12-23T03:29:07.088Z,96.70
2022-12-23T03:30:07.145Z,96.81
2022-12-23T03:31:07.130Z,96.91
2022-12-23T03:32:07.079Z,96.91
2022-12-23T03:33:07.569Z,96.91
2022-12-23T03:34:07.051Z,96.91
2022-12-23T03:35:07.035Z,96.91
2022-12-23T03:36:07.031Z,97.02
2022-12-23T03:37:07.238Z,96.91
2022-12-23T03:38:07.022Z,96.91
2022-12-23T03:39:06.989Z,96.91
2022-12-23T03:40:07.045Z,96.70
2022-12-23T03:41:06.959Z,96.60
2022-12-23T03:42:07.018Z,96.50
2022-12-23T03:43:06.920Z,96.50
2022-12-23T03:44:06.965Z,96.50
2022-12-23T03:46:07.961Z,96.50
2022-12-23T03:47:06.905Z,96.50
2022-12-23T03:48:06.895Z,96.50
2022-12-23T03:49:06.862Z,96.50
2022-12-23T03:50:06.907Z,96.50
2022-12-23T03:51:06.850Z,96.60
2022-12-23T03:52:06.894Z,96.56
2022-12-23T03:53:06.807Z,96.45
2022-12-23T03:54:06.823Z,96.45
2022-12-23T03:55:06.796Z,96.56
2022-12-23T03:56:06.810Z,96.66
2022-12-23T03:57:06.790Z,96.77
2022-12-23T03:58:06.793Z,96.77
2022-12-23T03:59:06.749Z,96.77
2022-12-23T04:00:07.722Z,96.87
2022-12-23T04:01:06.743Z,96.87
2022-12-23T04:02:06.908Z,96.87
2022-12-23T04:03:08.194Z,96.97
2022-12-23T04:04:06.790Z,96.97
2022-12-23T04:05:06.691Z,96.97
2022-12-23T04:06:06.795Z,96.87
2022-12-23T04:07:06.691Z,96.87
2022-12-23T04:08:06.682Z,96.87
2022-12-23T04:09:06.805Z,96.77
2022-12-23T04:10:07.620Z,96.66
2022-12-23T04:11:06.638Z,96.66
2022-12-23T04:12:06.621Z,96.66
2022-12-23T04:13:07.537Z,96.66
2022-12-23T04:14:06.620Z,96.66
2022-12-23T04:15:12.608Z,96.66
2022-12-23T04:16:07.674Z,96.77
2022-12-23T04:17:06.551Z,96.87
2022-12-23T04:18:06.588Z,96.87
2022-12-23T04:19:06.898Z,96.97
2022-12-23T04:20:06.559Z,97.07
2022-12-23T04:21:06.500Z,97.28
2022-12-23T04:22:06.504Z,97.38
2022-12-23T04:23:06.483Z,97.38
2022-12-23T04:24:06.498Z,97.48
2022-12-23T04:25:06.557Z,97.48
2022-12-23T04:26:06.454Z,97.58
2022-12-23T04:27:06.426Z,97.58
2022-12-23T04:28:06.608Z,97.58
2022-12-23T04:29:06.437Z,97.69
2022-12-23T04:30:06.451Z,97.69
2022-12-23T04:31:06.526Z,97.79
2022-12-23T04:32:06.403Z,97.79
2022-12-23T04:33:06.399Z,97.89
2022-12-23T04:34:06.363Z,97.99
2022-12-23T04:35:06.364Z,98.10
2022-12-23T04:36:06.343Z,98.20
2022-12-23T04:37:06.392Z,98.20
2022-12-23T04:38:06.342Z,98.20
2022-12-23T04:39:06.356Z,98.20
2022-12-23T04:40:06.304Z,98.20
2022-12-23T04:41:06.329Z,98.30
2022-12-23T04:42:06.279Z,98.30
2022-12-23T04:43:06.286Z,98.20
2022-12-23T04:44:06.241Z,98.20
2022-12-23T04:45:06.266Z,98.20
2022-12-23T04:46:06.364Z,98.20
2022-12-23T04:47:06.254Z,98.10
2022-12-23T04:48:06.297Z,98.10
2022-12-23T04:49:06.225Z,97.99
2022-12-23T04:50:06.168Z,98.10
2022-12-23T04:51:06.199Z,98.10
2022-12-23T04:52:06.195Z,98.10
2022-12-23T04:53:06.173Z,98.10
2022-12-23T04:54:06.139Z,97.99
2022-12-23T04:55:06.143Z,97.99
2022-12-23T04:56:06.122Z,97.99
2022-12-23T04:57:07.099Z,97.99
2022-12-23T04:58:06.099Z,97.89
2022-12-23T04:59:06.090Z,97.89
2022-12-23T05:00:06.125Z,97.89
2022-12-23T05:01:06.121Z,97.79
2022-12-23T05:02:06.428Z,97.89
2022-12-23T05:03:06.210Z,97.79
2022-12-23T05:04:06.030Z,97.79
2022-12-23T05:05:06.057Z,97.79
2022-12-23T05:06:06.033Z,97.79
2022-12-23T05:07:06.017Z,97.79
2022-12-23T05:08:05.998Z,97.74
2022-12-23T05:09:05.981Z,97.74
2022-12-23T05:10:05.959Z,97.64
2022-12-23T05:11:06.087Z,97.64
2022-12-23T05:12:05.943Z,97.64
2022-12-23T05:13:05.936Z,97.74
2022-12-23T05:14:05.919Z,97.74
2022-12-23T05:15:05.910Z,97.74
2022-12-23T05:16:05.937Z,97.74
2022-12-23T05:17:07.974Z,97.74
2022-12-23T05:18:05.873Z,97.64
2022-12-23T05:19:05.876Z,97.64
2022-12-23T05:20:05.879Z,97.74
2022-12-23T05:21:05.833Z,97.74
2022-12-23T05:22:05.855Z,97.74
2022-12-23T05:23:05.834Z,97.74
2022-12-23T05:24:05.861Z,97.74
2022-12-23T05:25:05.852Z,97.74
2022-12-23T05:26:05.831Z,97.85
2022-12-23T05:27:05.895Z,97.85
2022-12-23T05:28:05.786Z,97.85
2022-12-23T05:29:05.817Z,97.85
2022-12-23T05:30:05.789Z,97.85
2022-12-23T05:31:05.875Z,97.85
2022-12-23T05:32:05.804Z,97.85
2022-12-23T05:33:05.743Z,97.74
2022-12-23T05:34:06.784Z,97.74
2022-12-23T05:35:05.736Z,97.74
2022-12-23T05:36:05.770Z,97.74
2022-12-23T05:37:05.667Z,97.74
2022-12-23T05:38:05.767Z,97.74
2022-12-23T05:39:05.674Z,97.74
2022-12-23T05:40:05.803Z,97.74
2022-12-23T05:41:05.695Z,97.74
2022-12-23T05:42:05.578Z,97.74
2022-12-23T05:43:05.595Z,97.85
2022-12-23T05:44:05.644Z,97.85
2022-12-23T05:45:05.692Z,97.85
2022-12-23T05:46:05.685Z,97.85
2022-12-23T05:47:05.557Z,97.85
2022-12-23T05:48:05.511Z,97.74
2022-12-23T05:49:05.646Z,97.85
2022-12-23T05:50:05.567Z,97.85
2022-12-23T05:51:05.505Z,97.85
2022-12-23T05:52:05.663Z,97.85
2022-12-23T05:53:05.537Z,97.95
2022-12-23T05:54:05.542Z,97.95
2022-12-23T05:55:05.476Z,98.05
2022-12-23T05:56:05.427Z,98.05
2022-12-23T05:57:05.445Z,98.05
2022-12-23T05:58:05.517Z,98.05
2022-12-23T05:59:05.402Z,98.05
2022-12-23T06:00:05.391Z,98.00
2022-12-23T06:01:05.414Z,97.95
2022-12-23T06:02:05.551Z,97.80
2022-12-23T06:03:05.651Z,97.70
2022-12-23T06:04:05.587Z,97.70
2022-12-23T06:05:05.422Z,97.70
2022-12-23T06:06:05.324Z,97.60
2022-12-23T06:07:05.360Z,97.60
2022-12-23T06:08:05.293Z,97.49
2022-12-23T06:09:06.261Z,97.39
2022-12-23T06:10:05.264Z,97.39
2022-12-23T06:11:05.298Z,97.39
2022-12-23T06:12:05.241Z,97.39
2022-12-23T06:13:05.254Z,97.49
2022-12-23T06:14:05.227Z,97.39
2022-12-23T06:15:05.302Z,97.39
2022-12-23T06:16:05.261Z,97.49
2022-12-23T06:17:05.326Z,97.60
2022-12-23T06:18:05.221Z,97.60
2022-12-23T06:19:05.187Z,97.49
2022-12-23T06:20:05.164Z,97.49
2022-12-23T06:21:05.180Z,97.49
2022-12-23T06:22:05.185Z,97.39
2022-12-23T06:23:05.190Z,97.49
2022-12-23T06:24:05.106Z,97.39
2022-12-23T06:25:05.129Z,97.39
2022-12-23T06:26:05.087Z,97.29
2022-12-23T06:27:05.112Z,97.29
2022-12-23T06:28:05.084Z,97.29
2022-12-23T06:29:05.112Z,97.29
2022-12-23T06:30:05.127Z,97.49
2022-12-23T06:31:05.056Z,97.49
2022-12-23T06:32:05.215Z,97.49
2022-12-23T06:33:05.041Z,97.49
2022-12-23T06:34:05.014Z,97.39
2022-12-23T06:35:05.042Z,97.39
2022-12-23T06:36:04.979Z,97.49
2022-12-23T06:37:04.985Z,97.60
2022-12-23T06:38:10.303Z,97.70
2022-12-23T06:39:05.974Z,97.70
2022-12-23T06:40:04.919Z,97.80
2022-12-23T06:41:04.957Z,97.80
2022-12-23T06:42:04.900Z,97.70
2022-12-23T06:43:04.917Z,97.70
2022-12-23T06:44:04.931Z,97.70
2022-12-23T06:45:04.889Z,97.70
2022-12-23T06:46:04.975Z,97.70
2022-12-23T06:47:04.882Z,97.70
2022-12-23T06:48:04.891Z,97.70
2022-12-23T06:49:10.897Z,97.70
2022-12-23T06:50:05.857Z,97.70
2022-12-23T06:51:04.830Z,97.70
2022-12-23T06:52:04.815Z,97.80
2022-12-23T06:53:04.853Z,97.80
2022-12-23T06:54:05.719Z,97.80
2022-12-23T06:55:04.900Z,97.80
2022-12-23T06:56:04.753Z,97.80
2022-12-23T06:57:04.838Z,97.91
2022-12-23T06:58:05.689Z,98.00
2022-12-23T06:59:04.815Z,98.00
2022-12-23T07:00:06.155Z,98.11
2022-12-23T07:01:04.781Z,98.11
2022-12-23T07:02:04.924Z,98.21
2022-12-23T07:03:04.809Z,98.21
2022-12-23T07:04:04.661Z,98.42
2022-12-23T07:05:04.660Z,98.57
2022-12-23T07:06:04.670Z,98.67
2022-12-23T07:07:04.688Z,98.67
2022-12-23T07:08:04.626Z,98.77
2022-12-23T07:09:04.649Z,98.87
2022-12-23T07:10:04.609Z,98.87
2022-12-23T07:11:04.641Z,98.97
2022-12-23T07:12:04.599Z,98.97
2022-12-23T07:13:05.525Z,99.08
2022-12-23T07:14:04.539Z,99.08
2022-12-23T07:15:04.586Z,99.18
2022-12-23T07:16:04.533Z,99.18
2022-12-23T07:17:04.598Z,99.28
2022-12-23T07:18:04.499Z,99.28
2022-12-23T07:19:04.556Z,99.38
2022-12-23T07:20:04.485Z,99.38
2022-12-23T07:21:04.484Z,99.38
2022-12-23T07:22:04.458Z,99.38
2022-12-23T07:23:04.462Z,99.28
2022-12-23T07:24:04.446Z,99.28
2022-12-23T07:25:04.480Z,99.28
2022-12-23T07:26:04.418Z,99.38
2022-12-23T07:27:04.526Z,99.38
2022-12-23T07:28:04.402Z,99.38
2022-12-23T07:29:04.407Z,99.49
2022-12-23T07:30:04.351Z,99.49
2022-12-23T07:31:04.405Z,99.49
2022-12-23T07:32:04.497Z,99.59
2022-12-23T07:33:04.364Z,99.49
2022-12-23T07:34:04.309Z,99.49
2022-12-23T07:35:04.319Z,99.49
2022-12-23T07:36:04.328Z,99.49
2022-12-23T07:37:04.355Z,99.49
2022-12-23T07:38:04.281Z,99.49
2022-12-23T07:39:04.297Z,99.38
2022-12-23T07:40:08.601Z,99.38
2022-12-23T07:41:04.301Z,99.38
2022-12-23T07:42:33.604Z,99.38
2022-12-23T07:43:05.235Z,99.28
2022-12-23T07:44:04.233Z,99.28
2022-12-23T07:45:04.224Z,99.18
2022-12-23T07:46:04.267Z,99.18
2022-12-23T07:47:04.215Z,99.18
2022-12-23T07:48:04.159Z,99.18
2022-12-23T07:49:04.170Z,99.08
2022-12-23T07:50:04.143Z,98.97
2022-12-23T07:51:04.137Z,98.97
2022-12-23T07:52:04.136Z,98.97
2022-12-23T07:53:04.117Z,98.97
2022-12-23T07:54:04.089Z,98.87
2022-12-23T07:55:05.067Z,98.77
2022-12-23T07:56:04.069Z,98.77
2022-12-23T07:57:04.087Z,98.67
2022-12-23T07:58:04.050Z,98.77
2022-12-23T07:59:04.059Z,98.77
2022-12-23T08:00:04.017Z,98.67
2022-12-23T08:01:04.132Z,98.67
2022-12-23T08:02:04.246Z,98.67
2022-12-23T08:03:04.105Z,98.67
2022-12-23T08:04:03.972Z,98.52
2022-12-23T08:05:04.038Z,98.57
2022-12-23T08:06:03.967Z,98.52
2022-12-23T08:07:03.979Z,98.57
2022-12-23T08:08:04.374Z,98.52
2022-12-23T08:09:03.959Z,98.52
2022-12-23T08:10:03.917Z,98.46
2022-12-23T08:11:03.930Z,98.46
2022-12-23T08:12:03.896Z,98.32
2022-12-23T08:13:03.915Z,98.42
2022-12-23T08:14:03.858Z,98.32
2022-12-23T08:15:03.884Z,98.32
2022-12-23T08:16:03.898Z,98.32
2022-12-23T08:17:03.914Z,98.32
2022-12-23T08:18:03.821Z,98.32
2022-12-23T08:19:03.857Z,98.32
2022-12-23T08:20:03.802Z,98.32
2022-12-23T08:21:03.832Z,98.32
2022-12-23T08:22:03.798Z,98.32
2022-12-23T08:23:03.786Z,98.42
2022-12-23T08:24:03.753Z,98.42
2022-12-23T08:25:03.801Z,98.42
2022-12-23T08:26:03.746Z,98.32
2022-12-23T08:27:03.745Z,98.32
2022-12-23T08:28:04.865Z,98.32
2022-12-23T08:29:05.178Z,98.21
2022-12-23T08:30:03.756Z,98.21
2022-12-23T08:31:05.294Z,98.11
2022-12-23T08:32:03.669Z,98.00
2022-12-23T08:33:03.686Z,97.91
2022-12-23T08:34:03.655Z,97.91
2022-12-23T08:35:03.665Z,97.91
2022-12-23T08:36:03.615Z,97.91
2022-12-23T08:37:03.657Z,98.00
2022-12-23T08:38:03.603Z,98.00
2022-12-23T08:39:03.648Z,98.00
2022-12-23T08:40:03.572Z,98.00
2022-12-23T08:41:03.590Z,98.00
2022-12-23T08:42:03.597Z,98.11
2022-12-23T08:43:03.582Z,98.11
2022-12-23T08:44:03.581Z,98.00
2022-12-23T08:45:03.516Z,98.00
2022-12-23T08:46:03.659Z,98.00
2022-12-23T08:47:03.501Z,97.86
2022-12-23T08:48:04.458Z,97.86
2022-12-23T08:49:03.538Z,97.86
2022-12-23T08:50:03.864Z,97.75
2022-12-23T08:51:03.476Z,97.75
2022-12-23T08:52:03.466Z,97.75
2022-12-23T08:53:03.422Z,97.65
2022-12-23T08:54:03.478Z,97.75
2022-12-23T08:55:04.227Z,97.75
2022-12-23T08:56:03.628Z,97.75
2022-12-23T08:57:03.423Z,97.75
2022-12-23T08:58:03.401Z,97.75
2022-12-23T08:59:03.428Z,97.75
2022-12-23T09:00:03.406Z,97.75
2022-12-23T09:01:03.430Z,97.75
2022-12-23T09:02:03.688Z,97.75
2022-12-23T09:03:03.495Z,97.75
2022-12-23T09:04:03.381Z,97.86
2022-12-23T09:05:03.300Z,98.47
2022-12-23T09:06:03.323Z,98.07
2022-12-23T09:07:03.293Z,97.96
2022-12-23T09:08:03.302Z,97.65
2022-12-23T09:09:03.267Z,97.34
2022-12-23T09:10:03.274Z,97.04
2022-12-23T09:11:03.242Z,97.04
2022-12-23T09:12:03.244Z,97.14
2022-12-23T09:13:03.250Z,97.14
2022-12-23T09:14:03.295Z,97.24
2022-12-23T09:15:03.228Z,97.14
2022-12-23T09:16:03.333Z,97.04
2022-12-23T09:17:03.171Z,97.04
2022-12-23T09:18:03.172Z,97.04
2022-12-23T09:19:03.160Z,97.04
2022-12-23T09:20:03.187Z,97.04
2022-12-23T09:21:03.108Z,97.04
2022-12-23T09:22:03.187Z,97.04
2022-12-23T09:23:03.090Z,97.04
2022-12-23T09:24:03.106Z,97.14
2022-12-23T09:25:05.198Z,97.09
2022-12-23T09:26:03.087Z,96.99
2022-12-23T09:27:03.056Z,97.04
2022-12-23T09:28:03.068Z,96.89
2022-12-23T09:29:03.052Z,96.89
2022-12-23T09:30:03.073Z,96.89
2022-12-23T09:31:03.071Z,96.89
2022-12-23T09:32:03.013Z,96.89
2022-12-23T09:33:02.975Z,96.89
2022-12-23T09:34:03.060Z,96.89
2022-12-23T09:35:02.979Z,96.99
2022-12-23T09:36:02.978Z,96.99
2022-12-23T09:37:02.957Z,96.99
2022-12-23T09:38:02.952Z,97.09
2022-12-23T09:39:02.917Z,97.09
2022-12-23T09:40:02.934Z,97.09
2022-12-23T09:41:02.891Z,97.09
2022-12-23T09:42:02.924Z,97.09
2022-12-23T09:43:02.888Z,96.99
2022-12-23T09:44:03.848Z,96.99
2022-12-23T09:45:02.881Z,96.99
2022-12-23T09:46:02.927Z,96.89
2022-12-23T09:47:02.859Z,96.89
2022-12-23T09:48:02.853Z,96.89
2022-12-23T09:49:02.820Z,96.89
2022-12-23T09:50:02.841Z,96.89
2022-12-23T09:51:02.777Z,96.89
2022-12-23T09:52:02.835Z,96.89
2022-12-23T09:53:02.750Z,96.89
2022-12-23T09:54:02.771Z,96.99
2022-12-23T09:55:02.823Z,96.99
2022-12-23T09:56:02.760Z,96.89
2022-12-23T09:57:02.722Z,96.89
2022-12-23T09:58:02.745Z,96.89
2022-12-23T09:59:02.683Z,96.89
2022-12-23T10:00:02.707Z,96.69
2022-12-23T10:01:03.638Z,96.79
2022-12-23T10:02:02.876Z,96.79
2022-12-23T10:03:02.948Z,96.79
2022-12-23T10:04:02.759Z,96.69
2022-12-23T10:05:03.352Z,96.69
2022-12-23T10:06:02.641Z,96.69
2022-12-23T10:07:03.309Z,96.69
2022-12-23T10:08:02.679Z,96.69
2022-12-23T10:09:02.636Z,96.69
2022-12-23T10:10:02.590Z,96.69
2022-12-23T10:11:02.557Z,96.69
2022-12-23T10:12:02.548Z,96.79
2022-12-23T10:13:02.580Z,96.69
2022-12-23T10:14:02.559Z,96.79
2022-12-23T10:15:02.531Z,96.79
2022-12-23T10:16:02.598Z,96.79
2022-12-23T10:17:02.538Z,96.79
2022-12-23T10:18:02.507Z,96.89
2022-12-23T10:19:02.444Z,96.79
2022-12-23T10:20:02.465Z,96.79
2022-12-23T10:21:02.426Z,96.89
2022-12-23T10:22:02.465Z,96.99
2022-12-23T10:23:02.407Z,96.99
2022-12-23T10:24:02.436Z,96.99
2022-12-23T10:25:02.383Z,96.89
2022-12-23T10:26:02.426Z,96.89
2022-12-23T10:27:02.383Z,96.79
2022-12-23T10:28:02.372Z,96.79
2022-12-23T10:29:02.369Z,96.89
2022-12-23T10:30:19.997Z,96.89
2022-12-23T10:32:03.344Z,96.99
2022-12-23T10:33:02.317Z,97.09
2022-12-23T10:34:02.308Z,97.20
2022-12-23T10:35:02.275Z,97.30
2022-12-23T10:36:02.330Z,97.30
2022-12-23T10:37:02.435Z,97.30
2022-12-23T10:38:02.316Z,97.20
2022-12-23T10:39:02.228Z,97.20
2022-12-23T10:40:02.284Z,97.20
2022-12-23T10:41:09.084Z,97.20
2022-12-23T10:42:03.245Z,97.20
2022-12-23T10:43:02.187Z,97.20
2022-12-23T10:44:02.281Z,97.20
2022-12-23T10:45:02.189Z,97.30
2022-12-23T10:46:02.218Z,97.20
2022-12-23T10:47:02.219Z,97.09
2022-12-23T10:48:05.084Z,96.99
2022-12-23T10:49:02.121Z,96.99
2022-12-23T10:50:02.145Z,96.99
2022-12-23T10:51:02.097Z,96.99
2022-12-23T10:52:02.121Z,96.99
2022-12-23T10:53:02.068Z,96.89
2022-12-23T10:54:02.100Z,96.84
2022-12-23T10:55:02.092Z,96.89
2022-12-23T10:56:02.069Z,96.84
2022-12-23T10:57:02.056Z,96.99
2022-12-23T10:58:02.087Z,96.99
2022-12-23T10:59:02.005Z,97.09
2022-12-23T11:00:02.072Z,97.09
2022-12-23T11:01:02.037Z,97.09
2022-12-23T11:02:02.205Z,97.09
2022-12-23T11:03:02.075Z,97.09
2022-12-23T11:04:01.984Z,97.20
2022-12-23T11:05:01.970Z,97.30
2022-12-23T11:06:01.978Z,97.30
2022-12-23T11:07:34.504Z,97.30
2022-12-23T11:08:02.926Z,97.30
2022-12-23T11:09:01.912Z,97.20
2022-12-23T11:10:01.955Z,97.20
2022-12-23T11:11:01.910Z,97.20
2022-12-23T11:12:01.919Z,97.20
2022-12-23T11:13:01.853Z,97.20
2022-12-23T11:14:01.874Z,97.20
2022-12-23T11:15:01.826Z,97.20
2022-12-23T11:16:01.870Z,97.09
2022-12-23T11:17:01.823Z,97.09
2022-12-23T11:18:01.838Z,97.09
2022-12-23T11:19:01.794Z,96.99
2022-12-23T11:20:01.827Z,96.99
2022-12-23T11:21:01.792Z,96.89
2022-12-23T11:22:01.802Z,96.89
2022-12-23T11:23:01.800Z,96.89
2022-12-23T11:24:01.786Z,96.89
2022-12-23T11:25:01.747Z,96.89
2022-12-23T11:26:01.804Z,96.89
2022-12-23T11:27:01.706Z,96.79
2022-12-23T11:28:01.764Z,96.79
2022-12-23T11:29:02.632Z,96.58
2022-12-23T11:30:01.761Z,96.28
2022-12-23T11:31:01.656Z,96.28
2022-12-23T11:32:01.693Z,96.38
2022-12-23T11:33:01.631Z,96.28
2022-12-23T11:34:01.662Z,96.13
2022-12-23T11:35:02.599Z,96.13
2022-12-23T11:36:01.618Z,96.03
2022-12-23T11:37:06.978Z,95.92
2022-12-23T11:38:02.612Z,95.92
2022-12-23T11:39:01.595Z,95.82
2022-12-23T11:40:01.631Z,95.72
2022-12-23T11:41:01.544Z,95.62
2022-12-23T11:42:01.553Z,95.51
2022-12-23T11:43:01.514Z,95.51
2022-12-23T11:44:01.545Z,95.41
2022-12-23T11:45:01.501Z,95.21
2022-12-23T11:46:01.573Z,95.31
2022-12-23T11:47:01.458Z,95.41
2022-12-23T11:48:01.483Z,95.51
2022-12-23T11:49:01.447Z,95.51
2022-12-23T11:50:01.445Z,95.51
2022-12-23T11:51:01.415Z,95.62
2022-12-23T11:52:01.452Z,95.62
2022-12-23T11:53:01.394Z,95.62
2022-12-23T11:54:01.427Z,95.62
2022-12-23T11:55:01.371Z,95.41
2022-12-23T11:56:01.379Z,95.41
2022-12-23T11:57:01.462Z,95.31
2022-12-23T11:58:01.358Z,95.21
2022-12-23T11:59:01.595Z,95.10
2022-12-23T12:00:01.362Z,95.00
2022-12-23T12:01:01.312Z,95.00
2022-12-23T12:02:01.413Z,95.10
2022-12-23T12:03:01.331Z,95.10
2022-12-23T12:04:01.449Z,95.10
2022-12-23T12:05:01.253Z,95.10
2022-12-23T12:06:01.280Z,95.00
2022-12-23T12:07:01.253Z,95.00
2022-12-23T12:08:01.248Z,95.10
2022-12-23T12:09:01.236Z,95.00
2022-12-23T12:10:01.223Z,94.70
2022-12-23T12:11:01.220Z,94.59
2022-12-23T12:12:01.237Z,94.59
2022-12-23T12:13:01.165Z,94.59
2022-12-23T12:14:01.187Z,94.49
2022-12-23T12:15:01.179Z,94.39
2022-12-23T12:16:01.189Z,94.49
2022-12-23T12:17:01.150Z,94.39
2022-12-23T12:18:01.189Z,94.39
2022-12-23T12:19:01.189Z,94.45
2022-12-23T12:20:01.132Z,94.24
2022-12-23T12:21:01.090Z,94.24
2022-12-23T12:22:02.050Z,94.24
2022-12-23T12:23:01.060Z,94.14
2022-12-23T12:24:17.773Z,93.93
2022-12-23T12:25:02.033Z,93.93
2022-12-23T12:26:01.050Z,93.93
2022-12-23T12:27:01.034Z,93.93
2022-12-23T12:28:01.022Z,93.93
2022-12-23T12:29:00.993Z,93.73
2022-12-23T12:30:06.064Z,93.73
2022-12-23T12:31:03.013Z,93.63
2022-12-23T12:32:00.986Z,93.63
2022-12-23T12:33:01.023Z,93.73
2022-12-23T12:34:00.987Z,93.73
2022-12-23T12:35:00.927Z,93.77
2022-12-23T12:36:05.298Z,93.84
2022-12-23T12:37:01.032Z,93.84
2022-12-23T12:38:00.933Z,93.84
2022-12-23T12:39:00.909Z,93.93
2022-12-23T12:40:00.919Z,93.93
2022-12-23T12:41:00.850Z,94.04
2022-12-23T12:42:05.560Z,94.04
2022-12-23T12:43:01.842Z,93.93
2022-12-23T12:44:00.909Z,93.93
2022-12-23T12:45:00.844Z,93.93
2022-12-23T12:46:00.894Z,93.84
2022-12-23T12:47:04.081Z,93.63
2022-12-23T12:48:09.969Z,93.63
2022-12-23T12:49:01.759Z,93.63
2022-12-23T12:50:00.796Z,93.67
2022-12-23T12:51:00.739Z,93.84
2022-12-23T12:52:00.771Z,93.84
2022-12-23T12:53:00.750Z,93.73
2022-12-23T12:54:05.215Z,93.63